sensor_id;sensor_type;location;lat;lon;timestamp;temperature;humidity
45008;DHT22;30743;52.008;5.644;2023-01-28T00:00:05;9.10;99.90
45008;DHT22;30743;52.008;5.644;2023-01-28T00:02:32;8.90;99.90
45008;DHT22;30743;52.008;5.644;2023-01-28T00:04:57;8.70;99.90
45008;DHT22;30743;52.008;5.644;2023-01-28T00:07:23;8.30;99.90
45008;DHT22;30743;52.008;5.644;2023-01-28T00:09:49;8.20;99.90
45008;DHT22;30743;52.008;5.644;2023-01-28T00:12:15;8.40;99.90
45008;DHT22;30743;52.008;5.644;2023-01-28T00:14:40;8.20;99.90
45008;DHT22;30743;52.008;5.644;2023-01-28T00:17:06;8.00;99.90
45008;DHT22;30743;52.008;5.644;2023-01-28T00:19:31;7.90;99.90
45008;DHT22;30743;52.008;5.644;2023-01-28T00:21:57;8.30;99.90
45008;DHT22;30743;52.008;5.644;2023-01-28T00:24:22;8.60;99.90
45008;DHT22;30743;52.008;5.644;2023-01-28T00:26:48;8.80;99.90
45008;DHT22;30743;52.008;5.644;2023-01-28T00:29:13;8.60;99.90
45008;DHT22;30743;52.008;5.644;2023-01-28T00:31:39;8.70;99.90
45008;DHT22;30743;52.008;5.644;2023-01-28T00:34:05;8.90;99.90
45008;DHT22;30743;52.008;5.644;2023-01-28T00:36:31;8.90;99.90
45008;DHT22;30743;52.008;5.644;2023-01-28T00:38:57;8.60;99.90
45008;DHT22;30743;52.008;5.644;2023-01-28T00:41:26;8.60;99.90
45008;DHT22;30743;52.008;5.644;2023-01-28T00:43:52;8.80;99.90
45008;DHT22;30743;52.008;5.644;2023-01-28T00:46:18;8.90;99.90
45008;DHT22;30743;52.008;5.644;2023-01-28T00:48:44;8.90;99.90
45008;DHT22;30743;52.008;5.644;2023-01-28T00:51:12;8.90;99.90
45008;DHT22;30743;52.008;5.644;2023-01-28T00:53:38;8.90;99.90
45008;DHT22;30743;52.008;5.644;2023-01-28T00:56:06;8.70;99.90
45008;DHT22;30743;52.008;5.644;2023-01-28T00:58:32;8.50;99.90
45008;DHT22;30743;52.008;5.644;2023-01-28T01:01:10;8.10;99.90
45008;DHT22;30743;52.008;5.644;2023-01-28T01:03:36;8.00;99.90
45008;DHT22;30743;52.008;5.644;2023-01-28T01:06:02;8.20;99.90
45008;DHT22;30743;52.008;5.644;2023-01-28T01:08:27;7.90;99.90
45008;DHT22;30743;52.008;5.644;2023-01-28T01:11:00;7.80;99.90
45008;DHT22;30743;52.008;5.644;2023-01-28T01:13:25;7.70;99.90
45008;DHT22;30743;52.008;5.644;2023-01-28T01:16:04;7.80;99.90
45008;DHT22;30743;52.008;5.644;2023-01-28T01:18:31;7.90;99.90
45008;DHT22;30743;52.008;5.644;2023-01-28T01:20:56;7.70;99.90
45008;DHT22;30743;52.008;5.644;2023-01-28T01:23:25;7.60;99.90
45008;DHT22;30743;52.008;5.644;2023-01-28T01:25:51;7.50;99.90
45008;DHT22;30743;52.008;5.644;2023-01-28T01:28:17;7.10;99.90
45008;DHT22;30743;52.008;5.644;2023-01-28T01:30:42;7.10;99.90
45008;DHT22;30743;52.008;5.644;2023-01-28T01:33:08;7.40;99.90
45008;DHT22;30743;52.008;5.644;2023-01-28T01:35:33;7.10;99.90
45008;DHT22;30743;52.008;5.644;2023-01-28T01:37:59;7.00;99.90
45008;DHT22;30743;52.008;5.644;2023-01-28T01:40:24;7.10;99.90
45008;DHT22;30743;52.008;5.644;2023-01-28T01:42:50;7.20;99.90
45008;DHT22;30743;52.008;5.644;2023-01-28T01:45:15;7.10;99.90
45008;DHT22;30743;52.008;5.644;2023-01-28T01:50:36;7.40;99.90
45008;DHT22;30743;52.008;5.644;2023-01-28T01:53:10;7.40;99.90
45008;DHT22;30743;52.008;5.644;2023-01-28T01:55:39;7.50;99.90
45008;DHT22;30743;52.008;5.644;2023-01-28T01:58:11;7.70;99.90
45008;DHT22;30743;52.008;5.644;2023-01-28T02:00:38;7.70;99.90
45008;DHT22;30743;52.008;5.644;2023-01-28T02:03:04;8.00;99.90
45008;DHT22;30743;52.008;5.644;2023-01-28T02:05:30;7.80;99.90
45008;DHT22;30743;52.008;5.644;2023-01-28T02:07:57;8.10;99.90
45008;DHT22;30743;52.008;5.644;2023-01-28T02:10:45;8.30;99.90
45008;DHT22;30743;52.008;5.644;2023-01-28T02:13:11;8.30;99.90
45008;DHT22;30743;52.008;5.644;2023-01-28T02:15:37;8.30;99.90
45008;DHT22;30743;52.008;5.644;2023-01-28T02:18:03;7.90;99.90
45008;DHT22;30743;52.008;5.644;2023-01-28T02:20:44;7.70;99.90
45008;DHT22;30743;52.008;5.644;2023-01-28T02:26:04;7.80;99.90
45008;DHT22;30743;52.008;5.644;2023-01-28T02:28:54;7.80;99.90
45008;DHT22;30743;52.008;5.644;2023-01-28T02:31:33;7.40;99.90
45008;DHT22;30743;52.008;5.644;2023-01-28T02:34:27;7.60;99.90
45008;DHT22;30743;52.008;5.644;2023-01-28T02:37:03;7.80;99.90
45008;DHT22;30743;52.008;5.644;2023-01-28T02:39:36;7.50;99.90
45008;DHT22;30743;52.008;5.644;2023-01-28T02:42:12;7.60;99.90
45008;DHT22;30743;52.008;5.644;2023-01-28T02:44:39;7.40;99.90
45008;DHT22;30743;52.008;5.644;2023-01-28T02:47:11;7.40;99.90
45008;DHT22;30743;52.008;5.644;2023-01-28T02:49:58;7.60;99.90
45008;DHT22;30743;52.008;5.644;2023-01-28T02:52:46;7.60;99.90
45008;DHT22;30743;52.008;5.644;2023-01-28T03:07:03;7.90;99.90
45008;DHT22;30743;52.008;5.644;2023-01-28T03:09:29;7.60;99.90
45008;DHT22;30743;52.008;5.644;2023-01-28T03:12:05;7.60;99.90
45008;DHT22;30743;52.008;5.644;2023-01-28T03:14:59;7.50;99.90
45008;DHT22;30743;52.008;5.644;2023-01-28T03:17:51;7.20;99.90
45008;DHT22;30743;52.008;5.644;2023-01-28T03:20:53;7.20;99.90
45008;DHT22;30743;52.008;5.644;2023-01-28T03:23:47;7.40;99.90
45008;DHT22;30743;52.008;5.644;2023-01-28T03:26:37;7.20;99.90
45008;DHT22;30743;52.008;5.644;2023-01-28T03:29:22;7.20;99.90
45008;DHT22;30743;52.008;5.644;2023-01-28T03:32:08;7.40;99.90
45008;DHT22;30743;52.008;5.644;2023-01-28T03:34:53;7.50;99.90
45008;DHT22;30743;52.008;5.644;2023-01-28T03:37:37;7.30;99.90
45008;DHT22;30743;52.008;5.644;2023-01-28T03:40:05;7.30;99.90
45008;DHT22;30743;52.008;5.644;2023-01-28T03:42:32;7.30;99.90
45008;DHT22;30743;52.008;5.644;2023-01-28T03:44:58;7.30;99.90
45008;DHT22;30743;52.008;5.644;2023-01-28T03:47:27;7.50;99.90
45008;DHT22;30743;52.008;5.644;2023-01-28T03:49:55;7.70;99.90
45008;DHT22;30743;52.008;5.644;2023-01-28T03:52:23;7.60;99.90
45008;DHT22;30743;52.008;5.644;2023-01-28T03:54:50;7.80;99.90
45008;DHT22;30743;52.008;5.644;2023-01-28T03:57:19;8.00;99.90
45008;DHT22;30743;52.008;5.644;2023-01-28T03:59:45;8.00;99.90
45008;DHT22;30743;52.008;5.644;2023-01-28T04:02:11;8.00;99.90
45008;DHT22;30743;52.008;5.644;2023-01-28T04:04:38;7.90;99.90
45008;DHT22;30743;52.008;5.644;2023-01-28T04:07:05;7.90;99.90
45008;DHT22;30743;52.008;5.644;2023-01-28T04:09:33;8.20;99.90
45008;DHT22;30743;52.008;5.644;2023-01-28T04:11:59;8.50;99.90
45008;DHT22;30743;52.008;5.644;2023-01-28T04:14:24;8.60;99.90
45008;DHT22;30743;52.008;5.644;2023-01-28T04:16:50;8.70;99.90
45008;DHT22;30743;52.008;5.644;2023-01-28T04:19:16;8.90;99.90
45008;DHT22;30743;52.008;5.644;2023-01-28T04:21:41;9.00;99.90
45008;DHT22;30743;52.008;5.644;2023-01-28T04:24:07;9.00;99.90
45008;DHT22;30743;52.008;5.644;2023-01-28T04:26:33;9.00;99.90
45008;DHT22;30743;52.008;5.644;2023-01-28T04:28:58;8.70;99.90
45008;DHT22;30743;52.008;5.644;2023-01-28T04:31:24;8.60;99.90
45008;DHT22;30743;52.008;5.644;2023-01-28T04:33:49;8.70;99.90
45008;DHT22;30743;52.008;5.644;2023-01-28T04:36:15;8.80;99.90
45008;DHT22;30743;52.008;5.644;2023-01-28T04:38:41;8.80;99.90
45008;DHT22;30743;52.008;5.644;2023-01-28T04:41:07;8.70;99.90
45008;DHT22;30743;52.008;5.644;2023-01-28T04:43:32;8.50;99.90
45008;DHT22;30743;52.008;5.644;2023-01-28T04:45:58;8.40;99.90
45008;DHT22;30743;52.008;5.644;2023-01-28T04:48:23;7.90;99.90
45008;DHT22;30743;52.008;5.644;2023-01-28T04:50:49;7.90;99.90
45008;DHT22;30743;52.008;5.644;2023-01-28T04:53:14;7.90;99.90
45008;DHT22;30743;52.008;5.644;2023-01-28T04:55:40;7.70;99.90
45008;DHT22;30743;52.008;5.644;2023-01-28T04:58:06;7.40;99.90
45008;DHT22;30743;52.008;5.644;2023-01-28T05:00:32;7.40;99.90
45008;DHT22;30743;52.008;5.644;2023-01-28T05:02:57;7.30;99.90
45008;DHT22;30743;52.008;5.644;2023-01-28T05:05:23;7.50;99.90
45008;DHT22;30743;52.008;5.644;2023-01-28T05:07:52;7.60;99.90
45008;DHT22;30743;52.008;5.644;2023-01-28T05:10:18;7.80;99.90
45008;DHT22;30743;52.008;5.644;2023-01-28T05:12:46;7.70;99.90
45008;DHT22;30743;52.008;5.644;2023-01-28T05:15:11;7.80;99.90
45008;DHT22;30743;52.008;5.644;2023-01-28T05:17:37;7.60;99.90
45008;DHT22;30743;52.008;5.644;2023-01-28T05:20:04;7.30;99.90
45008;DHT22;30743;52.008;5.644;2023-01-28T05:22:29;7.20;99.90
45008;DHT22;30743;52.008;5.644;2023-01-28T05:24:55;7.30;99.90
45008;DHT22;30743;52.008;5.644;2023-01-28T05:27:20;7.20;99.90
45008;DHT22;30743;52.008;5.644;2023-01-28T05:29:46;7.20;99.90
45008;DHT22;30743;52.008;5.644;2023-01-28T05:32:11;7.40;99.90
45008;DHT22;30743;52.008;5.644;2023-01-28T05:34:37;7.40;99.90
45008;DHT22;30743;52.008;5.644;2023-01-28T05:37:02;7.50;99.90
45008;DHT22;30743;52.008;5.644;2023-01-28T05:39:28;7.60;99.90
45008;DHT22;30743;52.008;5.644;2023-01-28T05:41:54;7.60;99.90
45008;DHT22;30743;52.008;5.644;2023-01-28T05:44:19;7.40;99.90
45008;DHT22;30743;52.008;5.644;2023-01-28T05:46:45;7.70;99.90
45008;DHT22;30743;52.008;5.644;2023-01-28T05:49:11;8.00;99.90
45008;DHT22;30743;52.008;5.644;2023-01-28T05:51:38;8.10;99.90
45008;DHT22;30743;52.008;5.644;2023-01-28T05:54:05;8.00;99.90
45008;DHT22;30743;52.008;5.644;2023-01-28T05:56:30;8.00;99.90
45008;DHT22;30743;52.008;5.644;2023-01-28T05:58:56;8.30;99.90
45008;DHT22;30743;52.008;5.644;2023-01-28T06:01:21;8.20;99.90
45008;DHT22;30743;52.008;5.644;2023-01-28T06:03:47;8.20;99.90
45008;DHT22;30743;52.008;5.644;2023-01-28T06:06:12;8.00;99.90
45008;DHT22;30743;52.008;5.644;2023-01-28T06:08:38;7.90;99.90
45008;DHT22;30743;52.008;5.644;2023-01-28T06:11:03;8.00;99.90
45008;DHT22;30743;52.008;5.644;2023-01-28T06:13:29;7.70;99.90
45008;DHT22;30743;52.008;5.644;2023-01-28T06:15:54;7.60;99.90
45008;DHT22;30743;52.008;5.644;2023-01-28T06:18:20;7.70;99.90
45008;DHT22;30743;52.008;5.644;2023-01-28T06:20:48;7.50;99.90
45008;DHT22;30743;52.008;5.644;2023-01-28T06:23:14;7.70;99.90
45008;DHT22;30743;52.008;5.644;2023-01-28T06:25:39;7.50;99.90
45008;DHT22;30743;52.008;5.644;2023-01-28T06:28:05;7.60;99.90
45008;DHT22;30743;52.008;5.644;2023-01-28T06:30:30;7.30;99.90
45008;DHT22;30743;52.008;5.644;2023-01-28T06:32:56;7.30;99.90
45008;DHT22;30743;52.008;5.644;2023-01-28T06:35:22;7.30;99.90
45008;DHT22;30743;52.008;5.644;2023-01-28T06:37:47;7.30;99.90
45008;DHT22;30743;52.008;5.644;2023-01-28T06:40:13;7.70;99.90
45008;DHT22;30743;52.008;5.644;2023-01-28T06:42:39;7.70;99.90
45008;DHT22;30743;52.008;5.644;2023-01-28T06:45:04;7.60;99.90
45008;DHT22;30743;52.008;5.644;2023-01-28T06:47:30;7.30;99.90
45008;DHT22;30743;52.008;5.644;2023-01-28T06:49:55;7.40;99.90
45008;DHT22;30743;52.008;5.644;2023-01-28T06:52:21;7.70;99.90
45008;DHT22;30743;52.008;5.644;2023-01-28T06:54:46;7.90;99.90
45008;DHT22;30743;52.008;5.644;2023-01-28T06:57:12;8.10;99.90
45008;DHT22;30743;52.008;5.644;2023-01-28T06:59:37;7.90;99.90
45008;DHT22;30743;52.008;5.644;2023-01-28T07:02:03;7.50;99.90
45008;DHT22;30743;52.008;5.644;2023-01-28T07:04:28;7.40;99.90
45008;DHT22;30743;52.008;5.644;2023-01-28T07:06:54;7.40;99.90
45008;DHT22;30743;52.008;5.644;2023-01-28T07:09:19;7.70;99.90
45008;DHT22;30743;52.008;5.644;2023-01-28T07:11:45;7.70;99.90
45008;DHT22;30743;52.008;5.644;2023-01-28T07:14:10;7.70;99.90
45008;DHT22;30743;52.008;5.644;2023-01-28T07:16:36;7.80;99.90
45008;DHT22;30743;52.008;5.644;2023-01-28T07:19:01;7.60;99.90
45008;DHT22;30743;52.008;5.644;2023-01-28T07:21:27;7.50;99.90
45008;DHT22;30743;52.008;5.644;2023-01-28T07:23:52;7.30;99.90
45008;DHT22;30743;52.008;5.644;2023-01-28T07:26:18;7.70;99.90
45008;DHT22;30743;52.008;5.644;2023-01-28T07:28:44;7.60;99.90
45008;DHT22;30743;52.008;5.644;2023-01-28T07:31:10;7.30;99.90
45008;DHT22;30743;52.008;5.644;2023-01-28T07:33:35;7.20;99.90
45008;DHT22;30743;52.008;5.644;2023-01-28T07:36:01;7.40;99.90
45008;DHT22;30743;52.008;5.644;2023-01-28T07:38:26;7.20;99.90
45008;DHT22;30743;52.008;5.644;2023-01-28T07:40:52;7.20;99.90
45008;DHT22;30743;52.008;5.644;2023-01-28T07:43:18;7.20;99.90
45008;DHT22;30743;52.008;5.644;2023-01-28T07:45:44;7.10;99.90
45008;DHT22;30743;52.008;5.644;2023-01-28T07:48:11;7.20;99.90
45008;DHT22;30743;52.008;5.644;2023-01-28T07:50:38;7.20;99.90
45008;DHT22;30743;52.008;5.644;2023-01-28T07:53:06;7.20;99.90
45008;DHT22;30743;52.008;5.644;2023-01-28T07:55:32;7.30;99.90
45008;DHT22;30743;52.008;5.644;2023-01-28T07:58:01;7.20;99.90
45008;DHT22;30743;52.008;5.644;2023-01-28T08:00:29;7.30;99.90
45008;DHT22;30743;52.008;5.644;2023-01-28T08:02:57;7.10;99.90
45008;DHT22;30743;52.008;5.644;2023-01-28T08:05:23;7.10;99.90
45008;DHT22;30743;52.008;5.644;2023-01-28T08:07:51;7.30;99.90
45008;DHT22;30743;52.008;5.644;2023-01-28T08:10:17;7.30;99.90
45008;DHT22;30743;52.008;5.644;2023-01-28T08:12:56;7.40;99.90
45008;DHT22;30743;52.008;5.644;2023-01-28T08:15:25;7.40;99.90
45008;DHT22;30743;52.008;5.644;2023-01-28T08:17:58;7.20;99.90
45008;DHT22;30743;52.008;5.644;2023-01-28T08:20:25;7.40;99.90
45008;DHT22;30743;52.008;5.644;2023-01-28T08:22:51;7.70;99.90
45008;DHT22;30743;52.008;5.644;2023-01-28T08:25:17;7.70;99.90
45008;DHT22;30743;52.008;5.644;2023-01-28T08:27:42;7.60;99.90
45008;DHT22;30743;52.008;5.644;2023-01-28T08:30:08;7.20;99.90
45008;DHT22;30743;52.008;5.644;2023-01-28T08:32:35;7.30;99.90
45008;DHT22;30743;52.008;5.644;2023-01-28T08:35:01;7.30;99.90
45008;DHT22;30743;52.008;5.644;2023-01-28T08:37:26;7.30;99.90
45008;DHT22;30743;52.008;5.644;2023-01-28T08:39:52;7.60;99.90
45008;DHT22;30743;52.008;5.644;2023-01-28T08:42:17;7.40;99.90
45008;DHT22;30743;52.008;5.644;2023-01-28T08:44:43;7.40;99.90
45008;DHT22;30743;52.008;5.644;2023-01-28T08:47:08;7.30;99.90
45008;DHT22;30743;52.008;5.644;2023-01-28T08:49:34;7.30;99.90
45008;DHT22;30743;52.008;5.644;2023-01-28T08:51:59;7.50;99.90
45008;DHT22;30743;52.008;5.644;2023-01-28T08:54:25;7.60;99.90
45008;DHT22;30743;52.008;5.644;2023-01-28T08:56:50;7.80;99.90
45008;DHT22;30743;52.008;5.644;2023-01-28T08:59:17;7.70;99.90
45008;DHT22;30743;52.008;5.644;2023-01-28T09:01:42;7.40;99.90
45008;DHT22;30743;52.008;5.644;2023-01-28T09:04:08;7.40;99.90
45008;DHT22;30743;52.008;5.644;2023-01-28T09:06:33;7.50;99.90
45008;DHT22;30743;52.008;5.644;2023-01-28T09:08:59;7.60;99.90
45008;DHT22;30743;52.008;5.644;2023-01-28T09:11:26;7.20;99.90
45008;DHT22;30743;52.008;5.644;2023-01-28T09:13:51;6.90;99.90
45008;DHT22;30743;52.008;5.644;2023-01-28T09:16:17;7.10;99.90
45008;DHT22;30743;52.008;5.644;2023-01-28T09:18:42;7.40;99.90
45008;DHT22;30743;52.008;5.644;2023-01-28T09:21:08;7.80;99.90
45008;DHT22;30743;52.008;5.644;2023-01-28T09:23:35;8.00;99.90
45008;DHT22;30743;52.008;5.644;2023-01-28T09:26:01;8.30;99.90
45008;DHT22;30743;52.008;5.644;2023-01-28T09:28:27;8.60;99.90
45008;DHT22;30743;52.008;5.644;2023-01-28T09:31:03;8.50;99.90
45008;DHT22;30743;52.008;5.644;2023-01-28T09:33:29;8.80;99.90
45008;DHT22;30743;52.008;5.644;2023-01-28T09:35:54;9.00;99.90
45008;DHT22;30743;52.008;5.644;2023-01-28T09:38:20;9.30;99.90
45008;DHT22;30743;52.008;5.644;2023-01-28T09:40:45;9.30;99.90
45008;DHT22;30743;52.008;5.644;2023-01-28T09:43:26;9.50;99.90
45008;DHT22;30743;52.008;5.644;2023-01-28T09:46:03;9.70;99.90
45008;DHT22;30743;52.008;5.644;2023-01-28T09:48:33;9.60;99.90
45008;DHT22;30743;52.008;5.644;2023-01-28T09:51:02;9.50;99.90
45008;DHT22;30743;52.008;5.644;2023-01-28T09:53:34;9.50;99.90
45008;DHT22;30743;52.008;5.644;2023-01-28T09:56:20;9.60;99.90
45008;DHT22;30743;52.008;5.644;2023-01-28T09:58:46;9.50;99.90
45008;DHT22;30743;52.008;5.644;2023-01-28T10:16:51;9.20;99.90
45008;DHT22;30743;52.008;5.644;2023-01-28T10:19:33;9.30;99.90
45008;DHT22;30743;52.008;5.644;2023-01-28T10:22:08;9.30;99.90
45008;DHT22;30743;52.008;5.644;2023-01-28T10:24:40;9.20;99.90
45008;DHT22;30743;52.008;5.644;2023-01-28T10:27:15;9.10;99.90
45008;DHT22;30743;52.008;5.644;2023-01-28T10:29:41;9.00;99.90
45008;DHT22;30743;52.008;5.644;2023-01-28T10:32:28;8.80;99.90
45008;DHT22;30743;52.008;5.644;2023-01-28T10:34:55;9.00;99.90
45008;DHT22;30743;52.008;5.644;2023-01-28T10:37:21;9.20;99.90
45008;DHT22;30743;52.008;5.644;2023-01-28T10:39:47;9.30;99.90
45008;DHT22;30743;52.008;5.644;2023-01-28T10:42:31;9.70;99.90
45008;DHT22;30743;52.008;5.644;2023-01-28T10:45:00;11.00;99.90
45008;DHT22;30743;52.008;5.644;2023-01-28T10:47:34;12.80;99.90
45008;DHT22;30743;52.008;5.644;2023-01-28T10:50:04;14.60;99.90
45008;DHT22;30743;52.008;5.644;2023-01-28T10:52:30;16.50;99.90
45008;DHT22;30743;52.008;5.644;2023-01-28T10:55:04;18.40;99.00
45008;DHT22;30743;52.008;5.644;2023-01-28T10:57:32;20.00;95.80
45008;DHT22;30743;52.008;5.644;2023-01-28T11:00:12;21.60;93.50
45008;DHT22;30743;52.008;5.644;2023-01-28T11:02:47;22.80;90.60
45008;DHT22;30743;52.008;5.644;2023-01-28T11:05:20;24.00;83.30
45008;DHT22;30743;52.008;5.644;2023-01-28T11:07:47;25.20;79.80
45008;DHT22;30743;52.008;5.644;2023-01-28T11:10:25;26.20;78.50
45008;DHT22;30743;52.008;5.644;2023-01-28T11:12:55;27.20;74.30
45008;DHT22;30743;52.008;5.644;2023-01-28T11:15:21;27.70;69.70
45008;DHT22;30743;52.008;5.644;2023-01-28T11:17:49;27.80;66.20
45008;DHT22;30743;52.008;5.644;2023-01-28T11:20:22;27.70;69.00
45008;DHT22;30743;52.008;5.644;2023-01-28T11:22:50;27.60;67.00
45008;DHT22;30743;52.008;5.644;2023-01-28T11:25:32;27.50;65.30
45008;DHT22;30743;52.008;5.644;2023-01-28T11:28:00;27.60;65.20
45008;DHT22;30743;52.008;5.644;2023-01-28T11:30:37;27.90;63.80
45008;DHT22;30743;52.008;5.644;2023-01-28T11:35:35;29.00;60.50
45008;DHT22;30743;52.008;5.644;2023-01-28T11:38:01;29.50;60.00
45008;DHT22;30743;52.008;5.644;2023-01-28T11:40:27;30.10;60.00
45008;DHT22;30743;52.008;5.644;2023-01-28T11:42:56;30.20;59.00
45008;DHT22;30743;52.008;5.644;2023-01-28T11:45:42;30.80;58.50
45008;DHT22;30743;52.008;5.644;2023-01-28T11:48:22;31.30;56.90
45008;DHT22;30743;52.008;5.644;2023-01-28T11:51:02;32.00;56.70
45008;DHT22;30743;52.008;5.644;2023-01-28T11:53:41;32.00;54.50
45008;DHT22;30743;52.008;5.644;2023-01-28T11:56:26;32.30;54.10
45008;DHT22;30743;52.008;5.644;2023-01-28T12:01:46;32.30;53.30
45008;DHT22;30743;52.008;5.644;2023-01-28T12:04:40;32.50;53.90
45008;DHT22;30743;52.008;5.644;2023-01-28T12:07:18;32.60;52.90
45008;DHT22;30743;52.008;5.644;2023-01-28T12:10:35;32.90;52.90
45008;DHT22;30743;52.008;5.644;2023-01-28T12:12:56;33.30;52.20
45008;DHT22;30743;52.008;5.644;2023-01-28T12:18:21;33.50;50.50
45008;DHT22;30743;52.008;5.644;2023-01-28T12:21:06;33.00;49.30
45008;DHT22;30743;52.008;5.644;2023-01-28T12:26:50;31.60;51.00
45008;DHT22;30743;52.008;5.644;2023-01-28T12:29:41;31.00;49.70
45008;DHT22;30743;52.008;5.644;2023-01-28T12:32:37;30.90;50.90
45008;DHT22;30743;52.008;5.644;2023-01-28T12:35:16;30.80;51.80
45008;DHT22;30743;52.008;5.644;2023-01-28T12:38:13;30.70;50.10
45008;DHT22;30743;52.008;5.644;2023-01-28T12:46:08;30.00;51.10
45008;DHT22;30743;52.008;5.644;2023-01-28T12:49:03;28.50;50.90
45008;DHT22;30743;52.008;5.644;2023-01-28T12:56:50;23.60;55.80
45008;DHT22;30743;52.008;5.644;2023-01-28T12:59:32;22.70;57.30
45008;DHT22;30743;52.008;5.644;2023-01-28T13:07:27;24.10;57.70
45008;DHT22;30743;52.008;5.644;2023-01-28T13:10:08;25.30;56.60
45008;DHT22;30743;52.008;5.644;2023-01-28T13:12:38;26.70;55.70
45008;DHT22;30743;52.008;5.644;2023-01-28T13:15:09;27.70;54.70
45008;DHT22;30743;52.008;5.644;2023-01-28T13:17:35;28.60;52.70
45008;DHT22;30743;52.008;5.644;2023-01-28T13:20:13;29.30;53.40
45008;DHT22;30743;52.008;5.644;2023-01-28T13:22:39;30.30;52.50
45008;DHT22;30743;52.008;5.644;2023-01-28T13:27:38;31.70;51.40
45008;DHT22;30743;52.008;5.644;2023-01-28T13:30:25;32.10;50.10
45008;DHT22;30743;52.008;5.644;2023-01-28T13:32:56;32.20;48.90
45008;DHT22;30743;52.008;5.644;2023-01-28T13:35:32;32.30;49.20
45008;DHT22;30743;52.008;5.644;2023-01-28T13:38:05;32.50;49.20
45008;DHT22;30743;52.008;5.644;2023-01-28T13:40:32;32.40;49.50
45008;DHT22;30743;52.008;5.644;2023-01-28T13:43:22;32.80;49.20
45008;DHT22;30743;52.008;5.644;2023-01-28T13:46:01;33.10;48.70
45008;DHT22;30743;52.008;5.644;2023-01-28T13:48:51;33.40;48.60
45008;DHT22;30743;52.008;5.644;2023-01-28T13:54:04;33.60;47.90
45008;DHT22;30743;52.008;5.644;2023-01-28T14:07:13;31.00;49.20
45008;DHT22;30743;52.008;5.644;2023-01-28T14:18:37;28.50;52.00
45008;DHT22;30743;52.008;5.644;2023-01-28T14:21:08;27.80;51.40
45008;DHT22;30743;52.008;5.644;2023-01-28T14:23:36;27.80;52.00
45008;DHT22;30743;52.008;5.644;2023-01-28T14:28:46;26.80;52.90
45008;DHT22;30743;52.008;5.644;2023-01-28T14:31:26;25.90;51.90
45008;DHT22;30743;52.008;5.644;2023-01-28T14:33:52;24.70;53.30
45008;DHT22;30743;52.008;5.644;2023-01-28T14:36:18;23.30;55.70
45008;DHT22;30743;52.008;5.644;2023-01-28T14:38:44;22.30;57.00
45008;DHT22;30743;52.008;5.644;2023-01-28T14:41:27;22.10;58.50
45008;DHT22;30743;52.008;5.644;2023-01-28T14:43:54;22.10;59.20
45008;DHT22;30743;52.008;5.644;2023-01-28T14:46:34;22.50;58.40
45008;DHT22;30743;52.008;5.644;2023-01-28T14:49:25;22.80;57.80
45008;DHT22;30743;52.008;5.644;2023-01-28T14:57:52;24.00;57.20
45008;DHT22;30743;52.008;5.644;2023-01-28T15:00:23;24.10;57.50
45008;DHT22;30743;52.008;5.644;2023-01-28T15:02:49;24.50;56.00
45008;DHT22;30743;52.008;5.644;2023-01-28T15:05:23;24.70;55.80
45008;DHT22;30743;52.008;5.644;2023-01-28T15:07:49;24.60;56.30
45008;DHT22;30743;52.008;5.644;2023-01-28T15:10:26;24.50;56.70
45008;DHT22;30743;52.008;5.644;2023-01-28T15:12:59;23.80;56.40
45008;DHT22;30743;52.008;5.644;2023-01-28T15:15:39;23.20;57.30
45008;DHT22;30743;52.008;5.644;2023-01-28T15:18:14;22.60;58.60
45008;DHT22;30743;52.008;5.644;2023-01-28T15:20:44;22.30;59.10
45008;DHT22;30743;52.008;5.644;2023-01-28T15:23:14;22.10;59.10
45008;DHT22;30743;52.008;5.644;2023-01-28T15:25:40;22.00;59.40
45008;DHT22;30743;52.008;5.644;2023-01-28T15:28:14;21.50;57.50
45008;DHT22;30743;52.008;5.644;2023-01-28T15:30:45;21.50;58.00
45008;DHT22;30743;52.008;5.644;2023-01-28T15:33:14;20.80;60.30
45008;DHT22;30743;52.008;5.644;2023-01-28T15:35:51;19.90;61.50
45008;DHT22;30743;52.008;5.644;2023-01-28T15:38:17;18.50;63.90
45008;DHT22;30743;52.008;5.644;2023-01-28T15:40:47;18.40;64.40
45008;DHT22;30743;52.008;5.644;2023-01-28T15:43:22;17.70;65.40
45008;DHT22;30743;52.008;5.644;2023-01-28T15:45:51;17.20;67.70
45008;DHT22;30743;52.008;5.644;2023-01-28T15:48:19;16.10;69.50
45008;DHT22;30743;52.008;5.644;2023-01-28T15:50:46;16.10;70.20
45008;DHT22;30743;52.008;5.644;2023-01-28T15:53:12;16.00;69.60
45008;DHT22;30743;52.008;5.644;2023-01-28T15:55:39;15.70;69.40
45008;DHT22;30743;52.008;5.644;2023-01-28T16:00:39;15.20;71.70
45008;DHT22;30743;52.008;5.644;2023-01-28T16:03:08;15.00;71.50
45008;DHT22;30743;52.008;5.644;2023-01-28T16:05:39;14.80;72.30
45008;DHT22;30743;52.008;5.644;2023-01-28T16:08:22;14.40;73.30
45008;DHT22;30743;52.008;5.644;2023-01-28T16:10:54;14.30;73.90
45008;DHT22;30743;52.008;5.644;2023-01-28T16:13:26;14.00;75.70
45008;DHT22;30743;52.008;5.644;2023-01-28T16:15:54;13.60;76.60
45008;DHT22;30743;52.008;5.644;2023-01-28T16:18:44;13.40;76.50
45008;DHT22;30743;52.008;5.644;2023-01-28T16:21:37;13.30;77.20
45008;DHT22;30743;52.008;5.644;2023-01-28T16:24:22;13.20;78.10
45008;DHT22;30743;52.008;5.644;2023-01-28T16:26:56;12.90;78.90
45008;DHT22;30743;52.008;5.644;2023-01-28T16:29:22;12.80;79.60
45008;DHT22;30743;52.008;5.644;2023-01-28T16:31:48;12.60;80.20
45008;DHT22;30743;52.008;5.644;2023-01-28T16:34:13;12.30;80.40
45008;DHT22;30743;52.008;5.644;2023-01-28T16:36:39;12.00;81.00
45008;DHT22;30743;52.008;5.644;2023-01-28T16:39:04;11.70;82.50
45008;DHT22;30743;52.008;5.644;2023-01-28T16:41:33;11.50;83.30
45008;DHT22;30743;52.008;5.644;2023-01-28T16:43:58;11.30;85.20
45008;DHT22;30743;52.008;5.644;2023-01-28T16:46:29;11.30;85.60
45008;DHT22;30743;52.008;5.644;2023-01-28T16:48:55;11.30;86.20
45008;DHT22;30743;52.008;5.644;2023-01-28T16:51:21;11.30;87.00
45008;DHT22;30743;52.008;5.644;2023-01-28T16:53:47;11.30;87.50
45008;DHT22;30743;52.008;5.644;2023-01-28T16:56:15;11.30;87.40
45008;DHT22;30743;52.008;5.644;2023-01-28T16:58:42;11.20;87.60
45008;DHT22;30743;52.008;5.644;2023-01-28T17:01:07;11.20;88.10
45008;DHT22;30743;52.008;5.644;2023-01-28T17:03:33;11.20;88.40
45008;DHT22;30743;52.008;5.644;2023-01-28T17:05:58;11.20;88.40
45008;DHT22;30743;52.008;5.644;2023-01-28T17:08:24;11.10;88.80
45008;DHT22;30743;52.008;5.644;2023-01-28T17:10:56;11.00;89.40
45008;DHT22;30743;52.008;5.644;2023-01-28T17:13:22;11.00;89.90
45008;DHT22;30743;52.008;5.644;2023-01-28T17:15:47;10.70;90.20
45008;DHT22;30743;52.008;5.644;2023-01-28T17:18:13;10.40;90.50
45008;DHT22;30743;52.008;5.644;2023-01-28T17:20:38;10.40;90.90
45008;DHT22;30743;52.008;5.644;2023-01-28T17:23:07;10.20;91.40
45008;DHT22;30743;52.008;5.644;2023-01-28T17:25:37;10.30;91.80
45008;DHT22;30743;52.008;5.644;2023-01-28T17:28:04;10.30;91.90
45008;DHT22;30743;52.008;5.644;2023-01-28T17:30:30;10.30;91.90
45008;DHT22;30743;52.008;5.644;2023-01-28T17:32:55;10.20;92.10